sensor_id;sensor_type;location;lat;lon;timestamp;P1;durP1;ratioP1;P2;durP2;ratioP2
12848;SDS011;6493;50.928;7.172;2023-03-01T00:03:51;1.30;;;1.20;;
12848;SDS011;6493;50.928;7.172;2023-03-01T00:08:56;1.30;;;1.07;;
12848;SDS011;6493;50.928;7.172;2023-03-01T00:14:02;1.03;;;0.93;;
12848;SDS011;6493;50.928;7.172;2023-03-01T00:19:09;1.03;;;0.93;;
12848;SDS011;6493;50.928;7.172;2023-03-01T00:24:15;1.20;;;1.10;;
12848;SDS011;6493;50.928;7.172;2023-03-01T00:29:20;2.17;;;1.60;;
12848;SDS011;6493;50.928;7.172;2023-03-01T00:34:23;1.13;;;0.97;;
12848;SDS011;6493;50.928;7.172;2023-03-01T00:39:26;1.40;;;1.07;;
12848;SDS011;6493;50.928;7.172;2023-03-01T00:44:31;1.53;;;1.10;;
12848;SDS011;6493;50.928;7.172;2023-03-01T00:49:35;1.47;;;1.20;;
12848;SDS011;6493;50.928;7.172;2023-03-01T00:54:38;1.53;;;0.87;;
12848;SDS011;6493;50.928;7.172;2023-03-01T00:59:43;2.17;;;1.07;;
12848;SDS011;6493;50.928;7.172;2023-03-01T01:04:47;1.23;;;1.10;;
12848;SDS011;6493;50.928;7.172;2023-03-01T01:09:50;1.23;;;1.00;;
12848;SDS011;6493;50.928;7.172;2023-03-01T01:14:54;1.57;;;1.07;;
12848;SDS011;6493;50.928;7.172;2023-03-01T01:19:58;1.87;;;1.60;;
12848;SDS011;6493;50.928;7.172;2023-03-01T01:25:01;2.40;;;1.67;;
12848;SDS011;6493;50.928;7.172;2023-03-01T01:30:07;1.67;;;1.30;;
12848;SDS011;6493;50.928;7.172;2023-03-01T01:35:11;1.87;;;1.50;;
12848;SDS011;6493;50.928;7.172;2023-03-01T01:40:14;2.97;;;1.83;;
12848;SDS011;6493;50.928;7.172;2023-03-01T01:45:27;2.77;;;2.03;;
12848;SDS011;6493;50.928;7.172;2023-03-01T01:50:32;2.03;;;1.53;;
12848;SDS011;6493;50.928;7.172;2023-03-01T01:55:41;3.63;;;2.43;;
12848;SDS011;6493;50.928;7.172;2023-03-01T02:00:49;3.33;;;2.50;;
12848;SDS011;6493;50.928;7.172;2023-03-01T02:05:53;4.17;;;3.13;;
12848;SDS011;6493;50.928;7.172;2023-03-01T02:11:01;4.60;;;2.90;;
12848;SDS011;6493;50.928;7.172;2023-03-01T02:16:09;3.80;;;2.77;;
12848;SDS011;6493;50.928;7.172;2023-03-01T02:21:17;4.90;;;2.87;;
12848;SDS011;6493;50.928;7.172;2023-03-01T02:26:34;4.43;;;2.70;;
12848;SDS011;6493;50.928;7.172;2023-03-01T02:31:43;3.77;;;2.53;;
12848;SDS011;6493;50.928;7.172;2023-03-01T02:36:47;2.50;;;1.90;;
12848;SDS011;6493;50.928;7.172;2023-03-01T02:41:53;3.63;;;2.80;;
12848;SDS011;6493;50.928;7.172;2023-03-01T02:47:01;2.80;;;1.90;;
12848;SDS011;6493;50.928;7.172;2023-03-01T02:52:11;2.53;;;1.90;;
12848;SDS011;6493;50.928;7.172;2023-03-01T02:57:26;3.57;;;2.30;;
12848;SDS011;6493;50.928;7.172;2023-03-01T03:02:33;2.30;;;1.90;;
12848;SDS011;6493;50.928;7.172;2023-03-01T03:07:53;2.20;;;1.80;;
12848;SDS011;6493;50.928;7.172;2023-03-01T03:12:58;3.40;;;2.40;;
12848;SDS011;6493;50.928;7.172;2023-03-01T03:18:06;2.70;;;2.00;;
12848;SDS011;6493;50.928;7.172;2023-03-01T03:23:11;3.00;;;2.50;;
12848;SDS011;6493;50.928;7.172;2023-03-01T03:28:14;4.00;;;3.07;;
12848;SDS011;6493;50.928;7.172;2023-03-01T03:33:20;3.30;;;2.93;;
12848;SDS011;6493;50.928;7.172;2023-03-01T03:38:23;4.10;;;2.60;;
12848;SDS011;6493;50.928;7.172;2023-03-01T03:43:27;4.03;;;2.90;;
12848;SDS011;6493;50.928;7.172;2023-03-01T03:48:36;2.50;;;2.30;;
12848;SDS011;6493;50.928;7.172;2023-03-01T03:53:41;2.97;;;2.47;;
12848;SDS011;6493;50.928;7.172;2023-03-01T03:58:44;3.40;;;2.60;;
12848;SDS011;6493;50.928;7.172;2023-03-01T04:03:49;2.57;;;2.33;;
12848;SDS011;6493;50.928;7.172;2023-03-01T04:08:55;3.40;;;2.40;;
12848;SDS011;6493;50.928;7.172;2023-03-01T04:13:59;3.23;;;2.37;;
12848;SDS011;6493;50.928;7.172;2023-03-01T04:19:04;3.03;;;2.20;;
12848;SDS011;6493;50.928;7.172;2023-03-01T04:24:07;3.37;;;2.20;;
12848;SDS011;6493;50.928;7.172;2023-03-01T04:29:10;4.10;;;2.70;;
12848;SDS011;6493;50.928;7.172;2023-03-01T04:34:15;3.13;;;2.50;;
12848;SDS011;6493;50.928;7.172;2023-03-01T04:39:18;3.73;;;2.67;;
12848;SDS011;6493;50.928;7.172;2023-03-01T04:44:21;4.23;;;2.73;;
12848;SDS011;6493;50.928;7.172;2023-03-01T04:49:26;3.50;;;2.80;;
12848;SDS011;6493;50.928;7.172;2023-03-01T04:54:29;3.80;;;3.10;;
12848;SDS011;6493;50.928;7.172;2023-03-01T04:59:34;4.17;;;3.30;;
12848;SDS011;6493;50.928;7.172;2023-03-01T05:04:39;5.10;;;3.57;;
12848;SDS011;6493;50.928;7.172;2023-03-01T05:09:42;4.37;;;3.30;;
12848;SDS011;6493;50.928;7.172;2023-03-01T05:14:45;6.37;;;3.73;;
12848;SDS011;6493;50.928;7.172;2023-03-01T05:19:50;4.07;;;3.20;;
12848;SDS011;6493;50.928;7.172;2023-03-01T05:24:53;4.27;;;3.50;;
12848;SDS011;6493;50.928;7.172;2023-03-01T05:29:56;4.17;;;3.70;;
12848;SDS011;6493;50.928;7.172;2023-03-01T05:35:01;6.13;;;4.30;;
12848;SDS011;6493;50.928;7.172;2023-03-01T05:40:07;5.97;;;3.97;;
12848;SDS011;6493;50.928;7.172;2023-03-01T05:45:17;5.33;;;4.00;;
12848;SDS011;6493;50.928;7.172;2023-03-01T05:50:22;5.90;;;4.17;;
12848;SDS011;6493;50.928;7.172;2023-03-01T05:55:28;5.03;;;4.37;;
12848;SDS011;6493;50.928;7.172;2023-03-01T06:00:32;5.47;;;3.83;;
12848;SDS011;6493;50.928;7.172;2023-03-01T06:05:38;5.00;;;3.93;;
12848;SDS011;6493;50.928;7.172;2023-03-01T06:10:42;7.10;;;4.43;;
12848;SDS011;6493;50.928;7.172;2023-03-01T06:15:46;5.57;;;4.93;;
12848;SDS011;6493;50.928;7.172;2023-03-01T06:20:53;5.53;;;3.63;;
12848;SDS011;6493;50.928;7.172;2023-03-01T06:25:57;4.97;;;3.30;;
12848;SDS011;6493;50.928;7.172;2023-03-01T06:31:01;5.20;;;4.20;;
12848;SDS011;6493;50.928;7.172;2023-03-01T06:36:06;5.97;;;4.13;;
12848;SDS011;6493;50.928;7.172;2023-03-01T06:41:11;6.07;;;4.27;;
12848;SDS011;6493;50.928;7.172;2023-03-01T06:46:14;6.03;;;4.00;;
12848;SDS011;6493;50.928;7.172;2023-03-01T06:51:19;4.47;;;4.07;;
12848;SDS011;6493;50.928;7.172;2023-03-01T06:56:22;6.53;;;4.43;;
12848;SDS011;6493;50.928;7.172;2023-03-01T07:01:25;5.73;;;4.30;;
12848;SDS011;6493;50.928;7.172;2023-03-01T07:06:30;6.73;;;4.40;;
12848;SDS011;6493;50.928;7.172;2023-03-01T07:11:33;6.33;;;4.93;;
12848;SDS011;6493;50.928;7.172;2023-03-01T07:16:37;6.07;;;4.23;;
12848;SDS011;6493;50.928;7.172;2023-03-01T07:21:41;4.80;;;3.33;;
12848;SDS011;6493;50.928;7.172;2023-03-01T07:26:47;4.20;;;3.43;;
12848;SDS011;6493;50.928;7.172;2023-03-01T07:31:50;5.23;;;4.13;;
12848;SDS011;6493;50.928;7.172;2023-03-01T07:36:55;5.40;;;4.27;;
12848;SDS011;6493;50.928;7.172;2023-03-01T07:41:58;6.73;;;5.10;;
12848;SDS011;6493;50.928;7.172;2023-03-01T07:47:02;7.27;;;4.53;;
12848;SDS011;6493;50.928;7.172;2023-03-01T07:52:07;4.93;;;4.43;;
12848;SDS011;6493;50.928;7.172;2023-03-01T07:57:12;6.00;;;5.33;;
12848;SDS011;6493;50.928;7.172;2023-03-01T08:02:15;5.53;;;4.13;;
12848;SDS011;6493;50.928;7.172;2023-03-01T08:07:20;5.27;;;3.70;;
12848;SDS011;6493;50.928;7.172;2023-03-01T08:12:23;3.60;;;3.13;;
12848;SDS011;6493;50.928;7.172;2023-03-01T08:17:29;3.87;;;3.37;;
12848;SDS011;6493;50.928;7.172;2023-03-01T08:22:33;3.97;;;3.33;;
12848;SDS011;6493;50.928;7.172;2023-03-01T08:27:37;4.00;;;3.60;;
12848;SDS011;6493;50.928;7.172;2023-03-01T08:32:40;4.47;;;3.60;;
12848;SDS011;6493;50.928;7.172;2023-03-01T08:37:45;3.27;;;2.97;;
12848;SDS011;6493;50.928;7.172;2023-03-01T08:42:48;3.20;;;2.90;;
12848;SDS011;6493;50.928;7.172;2023-03-01T08:47:51;3.17;;;2.87;;
12848;SDS011;6493;50.928;7.172;2023-03-01T08:52:56;5.50;;;4.10;;
12848;SDS011;6493;50.928;7.172;2023-03-01T08:57:59;5.10;;;4.60;;
12848;SDS011;6493;50.928;7.172;2023-03-01T09:03:02;4.60;;;4.20;;
12848;SDS011;6493;50.928;7.172;2023-03-01T09:08:07;4.90;;;3.13;;
12848;SDS011;6493;50.928;7.172;2023-03-01T09:13:10;5.43;;;4.07;;
12848;SDS011;6493;50.928;7.172;2023-03-01T09:18:14;6.00;;;5.20;;
12848;SDS011;6493;50.928;7.172;2023-03-01T09:23:18;5.80;;;4.50;;
12848;SDS011;6493;50.928;7.172;2023-03-01T09:28:22;6.50;;;4.60;;
12848;SDS011;6493;50.928;7.172;2023-03-01T09:33:31;7.47;;;5.00;;
12848;SDS011;6493;50.928;7.172;2023-03-01T09:38:36;4.67;;;3.77;;
12848;SDS011;6493;50.928;7.172;2023-03-01T09:43:41;4.63;;;3.80;;
12848;SDS011;6493;50.928;7.172;2023-03-01T09:48:49;5.17;;;4.33;;
12848;SDS011;6493;50.928;7.172;2023-03-01T09:53:56;5.30;;;4.30;;
12848;SDS011;6493;50.928;7.172;2023-03-01T09:59:02;5.17;;;3.97;;
12848;SDS011;6493;50.928;7.172;2023-03-01T10:04:25;3.97;;;3.57;;
12848;SDS011;6493;50.928;7.172;2023-03-01T10:09:33;4.90;;;4.20;;
12848;SDS011;6493;50.928;7.172;2023-03-01T10:14:39;5.73;;;4.90;;
12848;SDS011;6493;50.928;7.172;2023-03-01T10:19:47;6.53;;;4.47;;
12848;SDS011;6493;50.928;7.172;2023-03-01T10:24:52;3.50;;;3.20;;
12848;SDS011;6493;50.928;7.172;2023-03-01T10:29:58;5.27;;;3.83;;
12848;SDS011;6493;50.928;7.172;2023-03-01T10:35:18;4.30;;;3.53;;
12848;SDS011;6493;50.928;7.172;2023-03-01T10:40:25;6.70;;;3.77;;
12848;SDS011;6493;50.928;7.172;2023-03-01T10:45:33;6.20;;;4.57;;
12848;SDS011;6493;50.928;7.172;2023-03-01T10:50:39;4.90;;;4.10;;
12848;SDS011;6493;50.928;7.172;2023-03-01T10:55:44;4.17;;;3.77;;
12848;SDS011;6493;50.928;7.172;2023-03-01T11:00:49;4.90;;;4.07;;
12848;SDS011;6493;50.928;7.172;2023-03-01T11:06:02;6.03;;;4.37;;
12848;SDS011;6493;50.928;7.172;2023-03-01T11:11:20;5.00;;;3.47;;
12848;SDS011;6493;50.928;7.172;2023-03-01T11:16:34;5.10;;;3.90;;
12848;SDS011;6493;50.928;7.172;2023-03-01T11:21:38;4.57;;;4.10;;
12848;SDS011;6493;50.928;7.172;2023-03-01T11:26:50;4.60;;;3.30;;
12848;SDS011;6493;50.928;7.172;2023-03-01T11:31:57;3.23;;;2.90;;
12848;SDS011;6493;50.928;7.172;2023-03-01T11:37:07;3.00;;;2.53;;
12848;SDS011;6493;50.928;7.172;2023-03-01T11:42:20;2.97;;;2.53;;
12848;SDS011;6493;50.928;7.172;2023-03-01T11:47:32;3.07;;;2.50;;
12848;SDS011;6493;50.928;7.172;2023-03-01T11:52:51;3.30;;;2.67;;
12848;SDS011;6493;50.928;7.172;2023-03-01T11:58:08;3.97;;;2.80;;
12848;SDS011;6493;50.928;7.172;2023-03-01T12:03:23;4.43;;;3.37;;
12848;SDS011;6493;50.928;7.172;2023-03-01T12:08:33;3.03;;;2.70;;
12848;SDS011;6493;50.928;7.172;2023-03-01T12:19:36;4.27;;;3.80;;
12848;SDS011;6493;50.928;7.172;2023-03-01T12:25:03;3.27;;;2.67;;
12848;SDS011;6493;50.928;7.172;2023-03-01T12:30:23;3.00;;;2.70;;
12848;SDS011;6493;50.928;7.172;2023-03-01T12:35:36;3.70;;;3.03;;
12848;SDS011;6493;50.928;7.172;2023-03-01T12:41:06;5.83;;;3.80;;
12848;SDS011;6493;50.928;7.172;2023-03-01T12:46:33;4.40;;;3.33;;
12848;SDS011;6493;50.928;7.172;2023-03-01T12:51:46;4.90;;;3.30;;
12848;SDS011;6493;50.928;7.172;2023-03-01T12:56:59;3.20;;;2.90;;
12848;SDS011;6493;50.928;7.172;2023-03-01T13:02:13;2.60;;;1.83;;
12848;SDS011;6493;50.928;7.172;2023-03-01T13:07:24;3.63;;;2.80;;
12848;SDS011;6493;50.928;7.172;2023-03-01T13:12:47;3.33;;;2.70;;
12848;SDS011;6493;50.928;7.172;2023-03-01T13:17:55;3.27;;;2.93;;
12848;SDS011;6493;50.928;7.172;2023-03-01T13:23:01;2.90;;;2.17;;
12848;SDS011;6493;50.928;7.172;2023-03-01T13:33:44;2.23;;;2.03;;
12848;SDS011;6493;50.928;7.172;2023-03-01T13:38:56;2.03;;;1.70;;
12848;SDS011;6493;50.928;7.172;2023-03-01T13:44:01;2.10;;;1.90;;
12848;SDS011;6493;50.928;7.172;2023-03-01T13:49:05;2.17;;;1.83;;
12848;SDS011;6493;50.928;7.172;2023-03-01T13:54:25;2.37;;;1.90;;
12848;SDS011;6493;50.928;7.172;2023-03-01T13:59:31;2.03;;;1.77;;
12848;SDS011;6493;50.928;7.172;2023-03-01T14:04:35;1.80;;;1.37;;
12848;SDS011;6493;50.928;7.172;2023-03-01T14:09:40;2.70;;;2.20;;
12848;SDS011;6493;50.928;7.172;2023-03-01T14:14:48;2.30;;;1.97;;
12848;SDS011;6493;50.928;7.172;2023-03-01T14:19:58;2.63;;;2.23;;
12848;SDS011;6493;50.928;7.172;2023-03-01T14:25:05;5.37;;;3.70;;
12848;SDS011;6493;50.928;7.172;2023-03-01T14:30:20;2.47;;;2.00;;
12848;SDS011;6493;50.928;7.172;2023-03-01T14:35:27;4.70;;;2.27;;
12848;SDS011;6493;50.928;7.172;2023-03-01T14:40:33;3.03;;;2.43;;
12848;SDS011;6493;50.928;7.172;2023-03-01T14:45:38;3.40;;;2.17;;
12848;SDS011;6493;50.928;7.172;2023-03-01T14:50:41;2.20;;;2.00;;
12848;SDS011;6493;50.928;7.172;2023-03-01T14:55:48;2.27;;;2.07;;
12848;SDS011;6493;50.928;7.172;2023-03-01T15:00:55;3.97;;;2.40;;
12848;SDS011;6493;50.928;7.172;2023-03-01T15:06:01;2.70;;;2.23;;
12848;SDS011;6493;50.928;7.172;2023-03-01T15:11:16;2.40;;;2.20;;
12848;SDS011;6493;50.928;7.172;2023-03-01T15:16:24;3.57;;;2.80;;
12848;SDS011;6493;50.928;7.172;2023-03-01T15:21:31;2.63;;;2.40;;
12848;SDS011;6493;50.928;7.172;2023-03-01T15:26:39;2.40;;;2.03;;
12848;SDS011;6493;50.928;7.172;2023-03-01T15:31:53;3.07;;;2.77;;
12848;SDS011;6493;50.928;7.172;2023-03-01T15:36:59;2.03;;;1.57;;
12848;SDS011;6493;50.928;7.172;2023-03-01T15:42:09;3.00;;;2.17;;
12848;SDS011;6493;50.928;7.172;2023-03-01T15:52:39;4.70;;;2.80;;
12848;SDS011;6493;50.928;7.172;2023-03-01T15:57:45;2.40;;;2.20;;
12848;SDS011;6493;50.928;7.172;2023-03-01T16:02:49;2.77;;;2.43;;
12848;SDS011;6493;50.928;7.172;2023-03-01T16:07:53;2.97;;;2.17;;
12848;SDS011;6493;50.928;7.172;2023-03-01T16:12:58;2.40;;;2.20;;
12848;SDS011;6493;50.928;7.172;2023-03-01T16:18:02;2.33;;;1.50;;
12848;SDS011;6493;50.928;7.172;2023-03-01T16:23:07;2.37;;;2.10;;
12848;SDS011;6493;50.928;7.172;2023-03-01T16:28:13;1.80;;;1.63;;
12848;SDS011;6493;50.928;7.172;2023-03-01T16:33:17;2.63;;;2.07;;
12848;SDS011;6493;50.928;7.172;2023-03-01T16:38:33;1.33;;;1.20;;
12848;SDS011;6493;50.928;7.172;2023-03-01T16:43:38;3.43;;;2.13;;
12848;SDS011;6493;50.928;7.172;2023-03-01T16:48:42;1.70;;;1.60;;
12848;SDS011;6493;50.928;7.172;2023-03-01T16:53:46;1.30;;;1.20;;
12848;SDS011;6493;50.928;7.172;2023-03-01T16:58:51;1.40;;;1.30;;
12848;SDS011;6493;50.928;7.172;2023-03-01T17:03:54;2.73;;;1.50;;
12848;SDS011;6493;50.928;7.172;2023-03-01T17:08:58;1.93;;;1.73;;
12848;SDS011;6493;50.928;7.172;2023-03-01T17:14:02;1.30;;;1.10;;
12848;SDS011;6493;50.928;7.172;2023-03-01T17:19:05;1.77;;;1.47;;
12848;SDS011;6493;50.928;7.172;2023-03-01T17:24:09;2.30;;;1.40;;
12848;SDS011;6493;50.928;7.172;2023-03-01T17:29:14;2.90;;;2.13;;
12848;SDS011;6493;50.928;7.172;2023-03-01T17:34:19;2.20;;;1.80;;
12848;SDS011;6493;50.928;7.172;2023-03-01T17:39:22;1.60;;;1.50;;
12848;SDS011;6493;50.928;7.172;2023-03-01T17:44:34;1.50;;;1.40;;
12848;SDS011;6493;50.928;7.172;2023-03-01T17:49:37;1.77;;;1.53;;
12848;SDS011;6493;50.928;7.172;2023-03-01T17:54:40;2.00;;;1.20;;
12848;SDS011;6493;50.928;7.172;2023-03-01T17:59:45;1.47;;;1.33;;
12848;SDS011;6493;50.928;7.172;2023-03-01T18:04:48;2.70;;;1.30;;
12848;SDS011;6493;50.928;7.172;2023-03-01T18:09:51;1.67;;;1.23;;
12848;SDS011;6493;50.928;7.172;2023-03-01T18:14:56;2.00;;;1.40;;
12848;SDS011;6493;50.928;7.172;2023-03-01T18:19:59;2.20;;;1.80;;
12848;SDS011;6493;50.928;7.172;2023-03-01T18:25:03;2.00;;;1.60;;
12848;SDS011;6493;50.928;7.172;2023-03-01T18:30:09;3.03;;;2.03;;
12848;SDS011;6493;50.928;7.172;2023-03-01T18:35:13;1.57;;;1.30;;
12848;SDS011;6493;50.928;7.172;2023-03-01T18:40:17;1.43;;;1.30;;
12848;SDS011;6493;50.928;7.172;2023-03-01T18:45:21;2.23;;;1.70;;
12848;SDS011;6493;50.928;7.172;2023-03-01T18:50:24;1.60;;;1.50;;
12848;SDS011;6493;50.928;7.172;2023-03-01T18:55:28;2.10;;;1.50;;
12848;SDS011;6493;50.928;7.172;2023-03-01T19:00:33;1.90;;;1.40;;
12848;SDS011;6493;50.928;7.172;2023-03-01T19:05:36;1.60;;;1.30;;
12848;SDS011;6493;50.928;7.172;2023-03-01T19:10:43;2.13;;;1.40;;
12848;SDS011;6493;50.928;7.172;2023-03-01T19:15:48;1.43;;;1.30;;
12848;SDS011;6493;50.928;7.172;2023-03-01T19:20:55;1.87;;;1.30;;
12848;SDS011;6493;50.928;7.172;2023-03-01T19:26:05;1.53;;;1.30;;
12848;SDS011;6493;50.928;7.172;2023-03-01T19:31:12;1.37;;;1.13;;
12848;SDS011;6493;50.928;7.172;2023-03-01T19:36:17;1.50;;;1.20;;
12848;SDS011;6493;50.928;7.172;2023-03-01T19:41:21;1.47;;;1.03;;
12848;SDS011;6493;50.928;7.172;2023-03-01T19:46:26;2.73;;;1.90;;
12848;SDS011;6493;50.928;7.172;2023-03-01T19:51:31;2.53;;;1.90;;
12848;SDS011;6493;50.928;7.172;2023-03-01T19:56:36;2.57;;;2.13;;
12848;SDS011;6493;50.928;7.172;2023-03-01T20:01:42;2.53;;;1.90;;
12848;SDS011;6493;50.928;7.172;2023-03-01T20:06:46;2.83;;;1.93;;
12848;SDS011;6493;50.928;7.172;2023-03-01T20:11:50;3.20;;;2.50;;
12848;SDS011;6493;50.928;7.172;2023-03-01T20:16:54;2.10;;;1.90;;
12848;SDS011;6493;50.928;7.172;2023-03-01T20:21:58;1.80;;;1.70;;
12848;SDS011;6493;50.928;7.172;2023-03-01T20:27:03;2.17;;;1.70;;
12848;SDS011;6493;50.928;7.172;2023-03-01T20:32:07;1.67;;;1.40;;
12848;SDS011;6493;50.928;7.172;2023-03-01T20:37:11;1.57;;;1.20;;
12848;SDS011;6493;50.928;7.172;2023-03-01T20:42:14;1.27;;;1.17;;
12848;SDS011;6493;50.928;7.172;2023-03-01T20:47:19;1.60;;;1.40;;
12848;SDS011;6493;50.928;7.172;2023-03-01T20:52:23;2.10;;;1.90;;
12848;SDS011;6493;50.928;7.172;2023-03-01T20:57:26;1.87;;;1.50;;
12848;SDS011;6493;50.928;7.172;2023-03-01T21:02:31;2.53;;;1.60;;
12848;SDS011;6493;50.928;7.172;2023-03-01T21:07:34;1.63;;;1.40;;
12848;SDS011;6493;50.928;7.172;2023-03-01T21:12:37;3.13;;;1.90;;
12848;SDS011;6493;50.928;7.172;2023-03-01T21:17:42;3.53;;;1.90;;
12848;SDS011;6493;50.928;7.172;2023-03-01T21:22:45;1.77;;;1.50;;
12848;SDS011;6493;50.928;7.172;2023-03-01T21:27:48;1.67;;;1.50;;
12848;SDS011;6493;50.928;7.172;2023-03-01T21:32:53;2.40;;;1.60;;
12848;SDS011;6493;50.928;7.172;2023-03-01T21:37:57;1.63;;;1.50;;
12848;SDS011;6493;50.928;7.172;2023-03-01T21:43:00;1.23;;;1.00;;
12848;SDS011;6493;50.928;7.172;2023-03-01T21:48:05;1.40;;;1.30;;
12848;SDS011;6493;50.928;7.172;2023-03-01T21:53:08;1.00;;;0.90;;
12848;SDS011;6493;50.928;7.172;2023-03-01T21:58:11;1.40;;;1.20;;
12848;SDS011;6493;50.928;7.172;2023-03-01T22:03:16;1.60;;;1.20;;
12848;SDS011;6493;50.928;7.172;2023-03-01T22:08:19;1.30;;;0.93;;
12848;SDS011;6493;50.928;7.172;2023-03-01T22:13:22;0.77;;;0.77;;
12848;SDS011;6493;50.928;7.172;2023-03-01T22:18:27;1.57;;;1.00;;
12848;SDS011;6493;50.928;7.172;2023-03-01T22:23:30;1.23;;;1.00;;
12848;SDS011;6493;50.928;7.172;2023-03-01T22:28:34;1.10;;;1.00;;
12848;SDS011;6493;50.928;7.172;2023-03-01T22:33:39;1.20;;;1.00;;
12848;SDS011;6493;50.928;7.172;2023-03-01T22:38:42;1.50;;;1.13;;
12848;SDS011;6493;50.928;7.172;2023-03-01T22:43:45;1.33;;;1.20;;
12848;SDS011;6493;50.928;7.172;2023-03-01T22:48:50;1.10;;;1.00;;
12848;SDS011;6493;50.928;7.172;2023-03-01T22:53:53;2.57;;;1.23;;
12848;SDS011;6493;50.928;7.172;2023-03-01T22:58:57;1.93;;;1.50;;
12848;SDS011;6493;50.928;7.172;2023-03-01T23:04:03;2.00;;;1.20;;
12848;SDS011;6493;50.928;7.172;2023-03-01T23:09:06;1.27;;;1.00;;
12848;SDS011;6493;50.928;7.172;2023-03-01T23:14:14;1.30;;;1.00;;
12848;SDS011;6493;50.928;7.172;2023-03-01T23:19:19;1.40;;;1.10;;
12848;SDS011;6493;50.928;7.172;2023-03-01T23:24:23;1.63;;;1.30;;
12848;SDS011;6493;50.928;7.172;2023-03-01T23:29:32;1.70;;;1.37;;
12848;SDS011;6493;50.928;7.172;2023-03-01T23:34:37;2.70;;;1.10;;
12848;SDS011;6493;50.928;7.172;2023-03-01T23:39:44;2.03;;;1.00;;
12848;SDS011;6493;50.928;7.172;2023-03-01T23:44:47;2.07;;;1.30;;
12848;SDS011;6493;50.928;7.172;2023-03-01T23:49:52;3.10;;;2.10;;
12848;SDS011;6493;50.928;7.172;2023-03-01T23:54:57;3.17;;;2.37;;
